createdAt,value
2023-02-19T00:00:06.404Z,68.00
2023-02-19T00:02:35.762Z,64.67
2023-02-19T00:05:04.588Z,57.33
2023-02-19T00:07:33.173Z,54.33
2023-02-19T00:10:01.104Z,60.50
2023-02-19T00:12:29.393Z,62.50
2023-02-19T00:14:58.649Z,56.50
2023-02-19T00:17:27.335Z,63.33
2023-02-19T00:19:55.136Z,58.00
2023-02-19T00:22:24.059Z,49.33
2023-02-19T00:24:52.024Z,54.00
2023-02-19T00:27:19.909Z,58.50
2023-02-19T00:29:46.824Z,54.00
2023-02-19T00:32:13.798Z,56.50
2023-02-19T00:34:42.510Z,54.33
2023-02-19T00:37:10.273Z,58.50
2023-02-19T00:39:37.995Z,51.50
2023-02-19T00:42:06.074Z,53.50
2023-02-19T00:44:33.901Z,57.00
2023-02-19T00:47:00.888Z,49.50
2023-02-19T00:49:28.855Z,51.00
2023-02-19T00:51:55.761Z,48.50
2023-02-19T00:54:24.875Z,52.00
2023-02-19T00:56:52.677Z,49.00
2023-02-19T00:59:21.257Z,53.00
2023-02-19T01:01:49.962Z,48.00
2023-02-19T01:04:16.953Z,54.50
2023-02-19T01:06:44.964Z,55.50
2023-02-19T01:09:13.991Z,52.00
2023-02-19T01:11:41.073Z,57.00
2023-02-19T01:14:12.698Z,55.00
2023-02-19T01:16:39.621Z,61.00
2023-02-19T01:19:06.614Z,62.00
2023-02-19T01:21:34.561Z,59.50
2023-02-19T01:24:02.467Z,57.00
2023-02-19T01:26:35.251Z,59.50
2023-02-19T01:29:03.260Z,58.00
2023-02-19T01:31:32.846Z,58.00
2023-02-19T01:34:01.695Z,64.50
2023-02-19T01:36:30.152Z,10.00
2023-02-19T01:39:00.878Z,60.50
2023-02-19T01:41:28.643Z,58.50
2023-02-19T01:43:59.405Z,53.50
2023-02-19T01:46:33.308Z,48.67
2023-02-19T01:49:06.283Z,53.00
2023-02-19T01:51:38.068Z,54.00
2023-02-19T01:54:10.006Z,54.00
2023-02-19T01:56:41.027Z,53.00
2023-02-19T01:59:08.369Z,56.00
2023-02-19T02:01:39.539Z,59.33
2023-02-19T02:04:11.192Z,49.00
2023-02-19T02:07:00.025Z,57.00
2023-02-19T02:10:05.836Z,48.50
2023-02-19T02:12:32.907Z,52.00
2023-02-19T02:15:00.836Z,49.00
2023-02-19T02:17:49.824Z,52.00
2023-02-19T02:20:40.683Z,54.00
2023-02-19T02:23:17.065Z,56.50
2023-02-19T02:25:57.347Z,57.50
2023-02-19T02:28:26.913Z,49.00
2023-02-19T02:30:59.865Z,52.00
2023-02-19T02:33:44.324Z,50.50
2023-02-19T02:36:18.493Z,58.00
2023-02-19T02:38:47.431Z,57.00
2023-02-19T02:41:16.075Z,53.00
2023-02-19T02:43:43.187Z,65.50
2023-02-19T02:46:13.631Z,58.00
2023-02-19T02:48:45.631Z,70.67
2023-02-19T02:51:21.115Z,60.50
2023-02-19T02:54:16.210Z,58.00
2023-02-19T02:56:46.583Z,59.00
2023-02-19T02:59:20.099Z,52.00
2023-02-19T03:02:11.930Z,55.00
2023-02-19T03:05:25.838Z,50.50
2023-02-19T03:08:00.898Z,52.00
2023-02-19T03:10:44.775Z,52.50
2023-02-19T03:13:37.500Z,53.67
2023-02-19T03:16:30.873Z,46.00
2023-02-19T03:19:19.137Z,49.00
2023-02-19T03:21:57.115Z,57.50
2023-02-19T03:24:48.419Z,53.50
2023-02-19T03:27:17.105Z,46.50
2023-02-19T03:29:48.905Z,50.00
2023-02-19T03:32:53.183Z,44.33
2023-02-19T03:35:32.002Z,43.50
2023-02-19T03:38:18.726Z,48.00
2023-02-19T03:40:54.334Z,41.00
2023-02-19T03:43:46.601Z,43.50
2023-02-19T03:46:23.397Z,45.00
2023-02-19T03:48:59.466Z,44.00
2023-02-19T03:51:40.649Z,47.50
2023-02-19T03:54:39.488Z,39.00
2023-02-19T03:57:19.207Z,41.00
2023-02-19T03:59:57.279Z,44.00
2023-02-19T04:02:50.857Z,41.00
2023-02-19T04:05:29.455Z,41.00
2023-02-19T04:08:10.300Z,45.00
2023-02-19T04:10:39.903Z,40.50
2023-02-19T04:13:27.053Z,47.00
2023-02-19T04:16:01.408Z,38.50
2023-02-19T04:18:34.048Z,36.00
2023-02-19T04:21:03.430Z,37.50
2023-02-19T04:23:36.806Z,36.50
2023-02-19T04:26:05.285Z,37.50
2023-02-19T04:28:32.270Z,39.00
2023-02-19T04:31:02.131Z,41.50
2023-02-19T04:33:29.920Z,36.00
2023-02-19T04:35:57.647Z,40.50
2023-02-19T04:38:25.622Z,37.50
2023-02-19T04:40:52.614Z,36.00
2023-02-19T04:43:20.055Z,37.00
2023-02-19T04:45:47.899Z,36.50
2023-02-19T04:48:15.796Z,43.50
2023-02-19T04:50:43.566Z,30.00
2023-02-19T04:53:10.520Z,36.00
2023-02-19T04:55:39.719Z,41.33
2023-02-19T04:58:06.615Z,38.00
2023-02-19T05:00:34.619Z,40.00
2023-02-19T05:03:02.495Z,20.33
2023-02-19T05:05:30.452Z,33.67
2023-02-19T05:07:57.489Z,37.00
2023-02-19T05:10:24.519Z,34.50
2023-02-19T05:12:52.184Z,37.50
2023-02-19T05:15:19.774Z,38.67
2023-02-19T05:17:47.345Z,32.00
2023-02-19T05:20:15.943Z,35.67
2023-02-19T05:22:43.558Z,31.33
2023-02-19T05:25:10.410Z,31.00
2023-02-19T05:27:38.006Z,36.33
2023-02-19T05:30:06.460Z,33.00
2023-02-19T05:32:35.963Z,24.00
2023-02-19T05:35:02.922Z,42.00
2023-02-19T05:37:31.772Z,32.33
2023-02-19T05:39:59.516Z,38.00
2023-02-19T05:42:27.195Z,37.67
2023-02-19T05:44:54.058Z,32.50
2023-02-19T05:47:21.856Z,38.50
2023-02-19T05:49:49.681Z,40.00
2023-02-19T05:52:16.545Z,41.00
2023-02-19T05:54:43.518Z,36.00
2023-02-19T05:57:11.293Z,33.50
2023-02-19T05:59:39.097Z,38.00
2023-02-19T06:02:06.789Z,37.50
2023-02-19T06:04:33.860Z,30.00
2023-02-19T06:07:00.814Z,35.50
2023-02-19T06:09:28.782Z,36.00
2023-02-19T06:11:55.702Z,29.50
2023-02-19T06:14:23.604Z,29.50
2023-02-19T06:16:51.284Z,22.00
2023-02-19T06:19:18.274Z,28.00
2023-02-19T06:21:46.885Z,26.33
2023-02-19T06:24:13.817Z,30.50
2023-02-19T06:26:40.685Z,29.00
2023-02-19T06:29:08.366Z,34.50
2023-02-19T06:31:36.331Z,31.00
2023-02-19T06:34:05.290Z,32.00
2023-02-19T06:36:32.218Z,28.50
2023-02-19T06:39:03.482Z,32.50
2023-02-19T06:41:30.449Z,27.50
2023-02-19T06:43:58.448Z,30.00
2023-02-19T06:48:54.220Z,34.50
2023-02-19T06:51:27.466Z,37.50
2023-02-19T06:53:57.029Z,36.67
2023-02-19T06:56:27.020Z,43.33
2023-02-19T06:58:55.826Z,41.00
2023-02-19T07:01:24.423Z,41.00
2023-02-19T07:03:52.825Z,40.50
2023-02-19T07:06:22.348Z,43.50
2023-02-19T07:08:52.226Z,43.00
2023-02-19T07:11:19.988Z,42.00
2023-02-19T07:13:47.736Z,43.50
2023-02-19T07:16:16.017Z,43.50
2023-02-19T07:18:44.559Z,42.33
2023-02-19T07:21:14.263Z,39.50
2023-02-19T07:23:44.148Z,37.67
2023-02-19T07:26:14.285Z,43.50
2023-02-19T07:28:43.587Z,41.00
2023-02-19T07:31:13.642Z,47.67
2023-02-19T07:33:46.162Z,43.33
2023-02-19T07:36:17.108Z,46.67
2023-02-19T07:38:46.644Z,46.33
2023-02-19T07:41:14.675Z,45.00
2023-02-19T07:43:43.360Z,50.00
2023-02-19T07:46:13.469Z,42.33
2023-02-19T07:48:43.245Z,45.00
2023-02-19T07:51:14.101Z,47.50
2023-02-19T07:53:43.115Z,44.33
2023-02-19T07:56:13.159Z,41.00
2023-02-19T07:58:42.544Z,45.33
2023-02-19T08:01:15.040Z,33.00
2023-02-19T08:03:44.846Z,38.00
2023-02-19T08:06:13.719Z,41.00
2023-02-19T08:08:42.340Z,40.67
2023-02-19T08:11:28.958Z,36.50
2023-02-19T08:13:57.156Z,32.00
2023-02-19T08:16:42.248Z,37.33
2023-02-19T08:19:11.887Z,37.67
2023-02-19T08:21:40.147Z,35.00
2023-02-19T08:24:09.229Z,40.67
2023-02-19T08:26:38.169Z,43.00
2023-02-19T08:29:07.084Z,41.50
2023-02-19T08:31:36.361Z,40.00
2023-02-19T08:34:05.082Z,39.00
2023-02-19T08:36:33.666Z,44.67
2023-02-19T08:39:02.285Z,37.67
2023-02-19T08:41:30.996Z,37.33
2023-02-19T08:43:58.947Z,31.00
2023-02-19T08:46:26.963Z,35.50
2023-02-19T08:48:56.055Z,38.00
2023-02-19T08:51:24.721Z,41.33
2023-02-19T08:53:53.252Z,38.00
2023-02-19T08:56:21.856Z,40.33
2023-02-19T08:58:50.586Z,39.67
2023-02-19T09:01:19.601Z,43.67
2023-02-19T09:03:48.264Z,47.00
2023-02-19T09:06:19.837Z,44.33
2023-02-19T09:08:48.408Z,44.67
2023-02-19T09:11:17.548Z,41.67
2023-02-19T09:13:46.177Z,44.00
2023-02-19T09:16:15.464Z,38.00
2023-02-19T09:18:45.900Z,43.00
2023-02-19T09:21:14.561Z,40.00
2023-02-19T09:23:42.732Z,41.00
2023-02-19T09:26:11.571Z,44.00
2023-02-19T09:28:41.967Z,42.50
2023-02-19T09:31:16.705Z,40.33
2023-02-19T09:33:47.409Z,49.00
2023-02-19T09:36:19.042Z,39.67
2023-02-19T09:38:47.055Z,39.00
2023-02-19T09:41:19.017Z,43.33
2023-02-19T09:43:47.652Z,38.67
2023-02-19T09:46:30.740Z,45.00
2023-02-19T09:49:15.872Z,41.33
2023-02-19T09:51:51.550Z,37.00
2023-02-19T09:54:29.352Z,38.00
2023-02-19T09:57:03.155Z,41.33
2023-02-19T09:59:50.568Z,39.67
2023-02-19T10:02:24.556Z,30.67
2023-02-19T10:04:53.889Z,37.50
2023-02-19T10:07:32.136Z,37.33
2023-02-19T10:10:17.924Z,35.50
2023-02-19T10:12:52.408Z,46.00
2023-02-19T10:15:25.682Z,44.00
2023-02-19T10:17:54.612Z,43.00
2023-02-19T10:20:27.900Z,44.00
2023-02-19T10:23:04.178Z,46.00
2023-02-19T10:25:34.711Z,39.33
2023-02-19T10:28:04.405Z,41.67
2023-02-19T10:30:36.176Z,37.33
2023-02-19T10:33:13.056Z,39.00
2023-02-19T10:35:54.649Z,38.67
2023-02-19T10:38:35.471Z,50.00
2023-02-19T10:41:18.270Z,49.33
2023-02-19T10:44:03.490Z,42.67
2023-02-19T10:46:35.990Z,45.00
2023-02-19T10:49:18.945Z,42.33
2023-02-19T10:51:48.112Z,43.00
2023-02-19T10:54:30.334Z,49.50
2023-02-19T10:57:21.256Z,48.00
2023-02-19T10:59:51.717Z,39.00
2023-02-19T11:02:22.262Z,42.33
2023-02-19T11:05:16.397Z,44.00
2023-02-19T11:07:56.544Z,46.00
2023-02-19T11:10:42.693Z,47.50
2023-02-19T11:13:16.809Z,30.50
2023-02-19T11:15:53.086Z,38.67
2023-02-19T11:18:21.711Z,33.00
2023-02-19T11:20:56.922Z,42.00
2023-02-19T11:23:30.598Z,37.00
2023-02-19T11:26:16.201Z,38.33
2023-02-19T11:28:45.025Z,41.33
2023-02-19T11:31:20.104Z,41.00
2023-02-19T11:34:15.137Z,40.00
2023-02-19T11:36:43.732Z,39.33
2023-02-19T11:39:15.184Z,33.33
2023-02-19T11:42:02.177Z,32.50
2023-02-19T11:44:49.263Z,33.33
2023-02-19T11:47:16.050Z,18.00
2023-02-19T11:50:09.393Z,25.50
2023-02-19T11:53:00.680Z,32.50
2023-02-19T11:55:36.765Z,24.50
2023-02-19T11:58:42.232Z,35.33
2023-02-19T12:01:29.594Z,21.33
2023-02-19T12:04:08.680Z,29.00
2023-02-19T12:07:02.064Z,31.67
2023-02-19T12:09:58.827Z,35.00
2023-02-19T12:12:57.188Z,34.67
2023-02-19T12:18:42.134Z,32.00
2023-02-19T12:21:30.236Z,35.00
2023-02-19T12:24:19.646Z,29.00
2023-02-19T12:27:20.658Z,34.00
2023-02-19T12:30:07.138Z,39.00
2023-02-19T12:32:57.461Z,40.33
2023-02-19T12:35:46.611Z,35.00
2023-02-19T12:38:23.576Z,36.33
2023-02-19T12:41:16.823Z,31.33
2023-02-19T12:44:01.690Z,30.67
2023-02-19T12:46:38.771Z,39.00
2023-02-19T12:49:22.948Z,34.00
2023-02-19T12:52:22.140Z,37.00
2023-02-19T12:54:58.410Z,35.67
2023-02-19T12:57:35.457Z,34.33
2023-02-19T13:00:31.872Z,32.00
2023-02-19T13:03:06.448Z,36.33
2023-02-19T13:05:59.249Z,30.00
2023-02-19T13:08:42.067Z,35.67
2023-02-19T13:11:25.244Z,29.67
2023-02-19T13:14:24.389Z,35.67
2023-02-19T13:17:00.580Z,36.00
2023-02-19T13:19:30.722Z,32.33
2023-02-19T13:22:33.229Z,39.00
2023-02-19T13:25:02.877Z,35.00
2023-02-19T13:28:03.463Z,34.33
2023-02-19T13:31:02.691Z,37.67
2023-02-19T13:33:45.816Z,33.33
2023-02-19T13:36:26.082Z,34.00
2023-02-19T13:38:57.522Z,33.33
2023-02-19T13:41:41.744Z,32.67
2023-02-19T13:44:20.231Z,34.33
2023-02-19T13:46:50.299Z,38.00
2023-02-19T13:49:36.479Z,37.00
2023-02-19T13:52:29.851Z,37.00
2023-02-19T13:55:35.392Z,35.00
2023-02-19T13:58:33.402Z,33.33
2023-02-19T14:01:11.963Z,32.00
2023-02-19T14:03:45.973Z,35.00
2023-02-19T14:06:15.191Z,33.33
2023-02-19T14:08:52.685Z,28.33
2023-02-19T14:11:47.911Z,38.00
2023-02-19T14:14:36.671Z,35.67
2023-02-19T14:17:10.224Z,33.33
2023-02-19T14:19:55.535Z,35.33
2023-02-19T14:22:57.776Z,33.33
2023-02-19T14:25:30.880Z,37.67
2023-02-19T14:28:07.383Z,35.67
2023-02-19T14:30:46.098Z,32.67
2023-02-19T14:33:17.528Z,35.33
2023-02-19T14:35:48.962Z,36.33
2023-02-19T14:38:32.346Z,39.33
2023-02-19T14:41:01.327Z,32.00
2023-02-19T14:43:30.911Z,37.00
2023-02-19T14:46:03.724Z,34.00
2023-02-19T14:48:41.829Z,37.67
2023-02-19T14:51:39.614Z,36.00
2023-02-19T14:54:18.654Z,35.00
2023-02-19T14:56:51.503Z,39.00
2023-02-19T14:59:28.449Z,32.67
2023-02-19T15:02:14.580Z,36.67
2023-02-19T15:04:43.703Z,36.67
2023-02-19T15:07:19.601Z,37.00
2023-02-19T15:09:50.874Z,39.00
2023-02-19T15:12:25.932Z,38.33
2023-02-19T15:15:00.020Z,35.67
2023-02-19T15:17:34.685Z,43.67
2023-02-19T15:20:09.576Z,39.33
2023-02-19T15:22:41.609Z,41.67
2023-02-19T15:25:18.874Z,37.00
2023-02-19T15:27:48.350Z,42.67
2023-02-19T15:30:29.709Z,45.00
2023-02-19T15:32:59.766Z,41.00
2023-02-19T15:35:32.664Z,37.33
2023-02-19T15:38:01.567Z,38.33
2023-02-19T15:40:31.495Z,41.67
2023-02-19T15:43:01.167Z,33.67
2023-02-19T15:45:46.383Z,33.00
2023-02-19T15:48:21.846Z,43.67
2023-02-19T15:50:59.604Z,40.33
2023-02-19T15:53:31.216Z,43.00
2023-02-19T15:56:28.449Z,41.33
2023-02-19T15:59:36.790Z,45.33
2023-02-19T16:02:05.406Z,50.00
2023-02-19T16:04:34.683Z,46.50
2023-02-19T16:07:03.793Z,47.50
2023-02-19T16:09:36.499Z,51.33
2023-02-19T16:12:21.682Z,48.67
2023-02-19T16:14:51.239Z,52.00
2023-02-19T16:17:25.125Z,44.33
2023-02-19T16:19:57.521Z,55.00
2023-02-19T16:22:30.128Z,48.33
2023-02-19T16:25:06.772Z,54.00
2023-02-19T16:27:42.460Z,48.67
2023-02-19T16:30:25.788Z,46.00
2023-02-19T16:33:34.910Z,49.00
2023-02-19T16:36:24.003Z,50.67
2023-02-19T16:39:07.594Z,51.50
2023-02-19T16:41:45.355Z,51.33
2023-02-19T16:44:28.883Z,52.67
2023-02-19T16:47:05.509Z,53.67
2023-02-19T16:49:34.050Z,55.33
2023-02-19T16:52:04.635Z,55.67
2023-02-19T16:54:33.346Z,55.00
2023-02-19T16:57:01.874Z,58.67
2023-02-19T16:59:30.508Z,59.00
2023-02-19T17:01:59.402Z,61.67
2023-02-19T17:04:28.326Z,61.67
2023-02-19T17:06:57.418Z,58.33
2023-02-19T17:09:26.202Z,62.00
2023-02-19T17:11:54.732Z,64.00
2023-02-19T17:14:24.097Z,61.67
2023-02-19T17:16:53.067Z,57.33
2023-02-19T17:19:22.541Z,59.00
2023-02-19T17:21:51.633Z,60.33
2023-02-19T17:24:19.472Z,58.50
2023-02-19T17:26:48.426Z,54.33
2023-02-19T17:29:18.639Z,59.00
2023-02-19T17:31:47.580Z,59.33
2023-02-19T17:34:15.387Z,54.50
2023-02-19T17:36:45.646Z,64.67
2023-02-19T17:39:15.837Z,67.00
2023-02-19T17:41:44.490Z,65.33
2023-02-19T17:44:14.574Z,67.00
2023-02-19T17:46:45.656Z,67.33
2023-02-19T17:49:14.480Z,61.33
2023-02-19T17:51:42.361Z,57.50
2023-02-19T17:54:11.252Z,57.33
2023-02-19T17:56:43.442Z,63.67
2023-02-19T17:59:12.881Z,58.67
2023-02-19T18:01:41.578Z,64.67
2023-02-19T18:04:10.236Z,64.33
2023-02-19T18:06:39.094Z,63.33
2023-02-19T18:09:08.445Z,61.33
2023-02-19T18:11:37.491Z,61.33
2023-02-19T18:14:06.077Z,60.67
2023-02-19T18:16:34.677Z,63.33
2023-02-19T18:19:03.981Z,65.33
2023-02-19T18:21:32.692Z,64.00
2023-02-19T18:24:01.706Z,63.33
2023-02-19T18:26:30.291Z,55.33
2023-02-19T18:28:58.376Z,52.50
2023-02-19T18:31:26.554Z,51.00
2023-02-19T18:33:54.371Z,51.00
2023-02-19T18:36:23.162Z,42.33
2023-02-19T18:38:51.706Z,37.67
2023-02-19T18:41:21.310Z,40.00
2023-02-19T18:43:50.630Z,32.33
2023-02-19T18:46:21.454Z,32.50
2023-02-19T18:48:49.209Z,25.00
2023-02-19T18:51:17.379Z,26.00
2023-02-19T18:53:45.211Z,27.50
2023-02-19T18:56:12.353Z,31.00
2023-02-19T18:58:40.413Z,25.00
2023-02-19T19:01:07.715Z,23.00
2023-02-19T19:03:34.861Z,17.00
2023-02-19T19:06:01.862Z,22.00
2023-02-19T19:08:30.690Z,24.00
2023-02-19T19:10:58.636Z,25.50
2023-02-19T19:13:26.897Z,30.50
2023-02-19T19:15:55.983Z,27.67
2023-02-19T19:18:26.424Z,25.00
2023-02-19T19:20:56.953Z,15.67
2023-02-19T19:23:23.832Z,17.50
2023-02-19T19:25:51.513Z,13.33
2023-02-19T19:28:18.178Z,6.00
2023-02-19T19:30:44.946Z,8.00
2023-02-19T19:33:14.258Z,6.00
2023-02-19T19:35:42.527Z,5.00
2023-02-19T19:38:10.272Z,6.00
2023-02-19T19:40:37.413Z,4.00
2023-02-19T19:43:04.343Z,2.00
2023-02-19T19:45:31.708Z,3.33
2023-02-19T19:47:58.690Z,2.00
2023-02-19T19:50:25.527Z,1.00
2023-02-19T19:52:52.441Z,2.00
2023-02-19T19:55:21.728Z,2.00
2023-02-19T19:57:49.851Z,1.00
2023-02-19T20:00:18.158Z,2.00
2023-02-19T20:02:46.774Z,0.00
2023-02-19T20:05:14.808Z,1.67
2023-02-19T20:07:41.574Z,1.00
2023-02-19T20:10:11.526Z,4.00
2023-02-19T20:12:40.081Z,2.00
2023-02-19T20:15:09.167Z,4.25
2023-02-19T20:17:37.680Z,9.00
2023-02-19T20:20:05.668Z,5.00
2023-02-19T20:22:37.345Z,5.00
2023-02-19T20:25:04.751Z,8.00
2023-02-19T20:27:37.857Z,9.00
2023-02-19T20:30:06.494Z,8.00
2023-02-19T20:32:33.722Z,11.00
2023-02-19T20:35:01.827Z,6.25
2023-02-19T20:37:32.112Z,5.00
2023-02-19T20:39:59.512Z,4.67
2023-02-19T20:42:27.767Z,6.00
2023-02-19T20:44:57.169Z,4.00
2023-02-19T20:47:24.330Z,7.00
2023-02-19T20:49:52.164Z,4.67
2023-02-19T20:52:25.449Z,4.75
2023-02-19T20:54:57.234Z,4.00
2023-02-19T20:57:25.409Z,4.00
2023-02-19T20:59:54.089Z,4.25
2023-02-19T21:02:25.272Z,4.00
2023-02-19T21:04:53.994Z,8.50
2023-02-19T21:07:21.657Z,5.00
2023-02-19T21:09:48.609Z,5.67
2023-02-19T21:12:17.059Z,7.50
2023-02-19T21:14:45.966Z,7.33
2023-02-19T21:17:13.977Z,4.00
2023-02-19T21:19:41.833Z,9.00
2023-02-19T21:22:10.215Z,8.50
2023-02-19T21:24:37.585Z,7.00
2023-02-19T21:27:05.138Z,7.00
2023-02-19T21:29:33.036Z,7.25
2023-02-19T21:32:00.194Z,6.33
2023-02-19T21:34:30.595Z,4.50
2023-02-19T21:36:58.072Z,7.00
2023-02-19T21:39:28.566Z,2.00
2023-02-19T21:41:55.575Z,2.67
2023-02-19T21:44:23.501Z,3.00
2023-02-19T21:46:50.539Z,1.00
2023-02-19T21:49:17.613Z,1.67
2023-02-19T21:51:45.716Z,1.00
2023-02-19T21:54:18.803Z,2.00
2023-02-19T21:56:46.691Z,1.75
2023-02-19T21:59:13.749Z,1.00
2023-02-19T22:01:42.234Z,1.00
2023-02-19T22:04:13.064Z,1.00
2023-02-19T22:06:43.599Z,1.00
2023-02-19T22:09:11.992Z,0.00
2023-02-19T22:11:38.877Z,1.00
2023-02-19T22:14:05.888Z,1.33
2023-02-19T22:16:33.374Z,0.00
2023-02-19T22:19:01.383Z,1.00
2023-02-19T22:21:33.483Z,1.00
2023-02-19T22:24:02.397Z,1.00
2023-02-19T22:26:34.516Z,2.67
2023-02-19T22:29:07.437Z,1.33
2023-02-19T22:31:35.752Z,1.33
2023-02-19T22:34:03.197Z,1.67
2023-02-19T22:36:31.301Z,2.00
2023-02-19T22:38:58.598Z,1.67
2023-02-19T22:41:26.424Z,2.67
2023-02-19T22:44:00.153Z,3.33
2023-02-19T22:46:29.984Z,0.67
2023-02-19T22:48:58.029Z,1.00
2023-02-19T22:51:25.849Z,2.00
2023-02-19T22:53:55.279Z,0.00
2023-02-19T22:56:24.746Z,2.00
2023-02-19T22:58:52.999Z,1.00
2023-02-19T23:01:20.661Z,0.67
2023-02-19T23:03:53.198Z,1.00
2023-02-19T23:06:25.970Z,0.67
2023-02-19T23:08:55.075Z,1.00
2023-02-19T23:11:27.859Z,1.00
2023-02-19T23:13:55.605Z,1.33
2023-02-19T23:16:22.598Z,1.00
2023-02-19T23:18:49.881Z,0.33
2023-02-19T23:21:18.540Z,1.00
2023-02-19T23:23:46.186Z,2.00
2023-02-19T23:26:14.135Z,3.67
2023-02-19T23:28:43.130Z,2.00
2023-02-19T23:31:10.230Z,2.00
2023-02-19T23:33:37.157Z,5.67
2023-02-19T23:36:05.062Z,3.00
2023-02-19T23:38:31.999Z,1.67
2023-02-19T23:40:59.158Z,1.33
2023-02-19T23:43:26.231Z,1.00
2023-02-19T23:45:53.056Z,4.00
2023-02-19T23:48:20.052Z,3.00
2023-02-19T23:50:46.782Z,1.00
2023-02-19T23:53:13.635Z,1.00
2023-02-19T23:55:40.610Z,1.00
2023-02-19T23:58:07.491Z,1.00
